Terminal Aerodrome Forecast
Issued by NWS Dallas/Fort Worth, TX

Home | Current Version | Previous Version | Text Only | Print | Product List | Glossary On
Versions: 1 2 3 4 5 6 7 8 9 10 11 12 13 14 15 16 17 18 19 20 21 22 23 24 25 26
697
FTUS44 KFWD 141752
TAFACT
TAF
KACT 141752Z 1418/1518 19017KT P6SM BKN025
     FM141900 19017KT P6SM BKN035
     FM150600 21012KT P6SM BKN020
     FM151200 33012KT P6SM OVC015=

USA.gov is the U.S. government's official web portal to all federal, state and local government web resources and services.